Terminal Aerodrome Forecast
Issued by NWS Bismarck, ND

Home | Current Version | Previous Version | Text Only | Print | Product List | Glossary Off
Versions: 1 2 3 4 5 6 7 8 9 10 11 12 13 14 15 16

000
FTUS43 KBIS 280500
TAFISN
TAF
KISN 280520Z 2806/0106 02005KT P6SM BKN060
     FM281300 31005KT P6SM SCT025 BKN060
     FM281800 29012KT P6SM SCT020 BKN040=

USA.gov is the U.S. government's official web portal to all federal, state and local government web resources and services.